createdAt,value
2023-01-27T00:00:59.024Z,95731.75
2023-01-27T00:03:25.797Z,95735.34
2023-01-27T00:05:52.257Z,95728.50
2023-01-27T00:08:18.881Z,95724.91
2023-01-27T00:10:45.340Z,95724.91
2023-01-27T00:13:27.899Z,95730.28
2023-01-27T00:15:54.778Z,95730.13
2023-01-27T00:18:21.405Z,95729.31
2023-01-27T00:21:06.608Z,95730.94
2023-01-27T00:23:51.393Z,95729.31
2023-01-27T00:26:18.820Z,95725.22
2023-01-27T00:28:46.268Z,95729.09
2023-01-27T00:31:32.528Z,95723.34
2023-01-27T00:34:02.202Z,95729.53
2023-01-27T00:36:30.043Z,95731.94
2023-01-27T00:38:56.671Z,95736.63
2023-01-27T00:41:23.462Z,95734.66
2023-01-27T00:43:51.330Z,95737.13
2023-01-27T00:46:18.563Z,95735.34
2023-01-27T00:48:45.428Z,95735.47
2023-01-27T00:51:13.238Z,95738.25
2023-01-27T00:53:40.340Z,95732.06
2023-01-27T00:56:06.921Z,95723.88
2023-01-27T00:58:33.697Z,95735.56
2023-01-27T01:01:01.642Z,95728.19
2023-01-27T01:03:31.616Z,95724.09
2023-01-27T01:05:58.782Z,95729.47
2023-01-27T01:08:25.506Z,95715.09
2023-01-27T01:10:52.324Z,95719.91
2023-01-27T01:13:19.317Z,95715.03
2023-01-27T01:15:45.786Z,95716.00
2023-01-27T01:18:12.332Z,95706.69
2023-01-27T01:20:40.097Z,95716.56
2023-01-27T01:23:06.980Z,95717.53
2023-01-27T01:25:33.935Z,95712.84
2023-01-27T01:28:00.955Z,95716.25
2023-01-27T01:30:27.863Z,95710.22
2023-01-27T01:32:54.519Z,95711.22
2023-01-27T01:35:21.573Z,95706.94
2023-01-27T01:37:48.216Z,95711.47
2023-01-27T01:40:15.239Z,95712.59
2023-01-27T01:42:47.838Z,95708.78
2023-01-27T01:45:32.607Z,95714.81
2023-01-27T01:48:01.629Z,95707.69
2023-01-27T01:50:28.237Z,95715.63
2023-01-27T01:52:55.463Z,95703.59
2023-01-27T01:55:23.619Z,95708.56
2023-01-27T01:57:50.526Z,95708.63
2023-01-27T02:00:17.477Z,95713.03
2023-01-27T02:02:44.112Z,95704.28
2023-01-27T02:05:14.260Z,95706.19
2023-01-27T02:07:43.841Z,95700.59
2023-01-27T02:10:11.955Z,95700.47
2023-01-27T02:12:38.992Z,95701.97
2023-01-27T02:15:06.386Z,95698.97
2023-01-27T02:17:32.830Z,95698.00
2023-01-27T02:19:59.668Z,95699.38
2023-01-27T02:22:55.587Z,95696.91
2023-01-27T02:25:27.063Z,95711.16
2023-01-27T02:27:53.527Z,95694.19
2023-01-27T02:30:20.088Z,95688.84
2023-01-27T02:32:46.534Z,95692.81
2023-01-27T02:35:15.810Z,95694.72
2023-01-27T02:37:43.034Z,95700.75
2023-01-27T02:40:10.800Z,95691.56
2023-01-27T02:42:37.289Z,95689.22
2023-01-27T02:45:04.775Z,95685.69
2023-01-27T02:47:31.256Z,95693.03
2023-01-27T02:49:57.909Z,95691.81
2023-01-27T02:52:24.402Z,95691.94
2023-01-27T02:54:50.862Z,95696.19
2023-01-27T02:57:17.296Z,95691.66
2023-01-27T02:59:43.719Z,95698.47
2023-01-27T03:02:14.821Z,95696.56
2023-01-27T03:04:42.022Z,95700.66
2023-01-27T03:07:08.476Z,95707.66
2023-01-27T03:09:34.891Z,95708.63
2023-01-27T03:12:20.010Z,95707.06
2023-01-27T03:15:05.936Z,95704.75
2023-01-27T03:17:50.812Z,95713.53
2023-01-27T03:20:17.388Z,95708.84
2023-01-27T03:22:43.864Z,95706.94
2023-01-27T03:25:11.075Z,95702.97
2023-01-27T03:27:37.848Z,95713.91
2023-01-27T03:30:05.127Z,95713.75
2023-01-27T03:32:32.128Z,95711.31
2023-01-27T03:34:58.682Z,95704.19
2023-01-27T03:37:43.877Z,95701.06
2023-01-27T03:40:29.114Z,95700.38
2023-01-27T03:43:14.503Z,95703.91
2023-01-27T03:46:03.420Z,95700.53
2023-01-27T03:48:32.108Z,95709.66
2023-01-27T03:50:59.059Z,95699.94
2023-01-27T03:53:25.485Z,95703.50
2023-01-27T03:55:52.322Z,95695.25
2023-01-27T03:58:26.185Z,95695.69
2023-01-27T04:00:56.822Z,95683.94
2023-01-27T04:03:42.987Z,95687.22
2023-01-27T04:06:29.213Z,95681.72
2023-01-27T04:08:56.422Z,95687.75
2023-01-27T04:11:42.106Z,95677.88
2023-01-27T04:14:09.667Z,95672.38
2023-01-27T04:16:39.345Z,95668.00
2023-01-27T04:19:06.871Z,95673.63
2023-01-27T04:21:33.618Z,95675.94
2023-01-27T04:24:00.395Z,95673.78
2023-01-27T04:26:33.230Z,95665.31
2023-01-27T04:29:00.595Z,95667.78
2023-01-27T04:31:27.128Z,95668.72
2023-01-27T04:33:53.790Z,95669.00
2023-01-27T04:36:20.290Z,95669.69
2023-01-27T04:38:46.878Z,95665.81
2023-01-27T04:41:13.534Z,95666.63
2023-01-27T04:43:39.974Z,95660.75
2023-01-27T04:46:06.675Z,95662.84
2023-01-27T04:48:33.322Z,95665.81
2023-01-27T04:50:59.808Z,95674.44
2023-01-27T04:53:26.243Z,95681.94
2023-01-27T04:55:52.664Z,95678.88
2023-01-27T04:58:19.336Z,95686.91
2023-01-27T05:00:45.867Z,95685.22
2023-01-27T05:03:12.439Z,95677.00
2023-01-27T05:05:39.156Z,95687.41
2023-01-27T05:08:06.649Z,95687.25
2023-01-27T05:10:33.101Z,95685.75
2023-01-27T05:12:59.511Z,95678.94
2023-01-27T05:15:26.135Z,95684.81
2023-01-27T05:17:52.684Z,95677.00
2023-01-27T05:20:19.159Z,95668.22
2023-01-27T05:22:45.695Z,95658.78
2023-01-27T05:25:12.681Z,95665.31
2023-01-27T05:27:39.393Z,95670.81
2023-01-27T05:30:06.180Z,95677.13
2023-01-27T05:32:32.668Z,95672.06
2023-01-27T05:34:59.087Z,95680.69
2023-01-27T05:37:25.528Z,95668.75
2023-01-27T05:39:52.020Z,95671.34
2023-01-27T05:42:18.449Z,95667.25
2023-01-27T05:44:44.868Z,95662.03
2023-01-27T05:47:11.325Z,95672.44
2023-01-27T05:49:37.770Z,95675.72
2023-01-27T05:52:04.395Z,95672.59
2023-01-27T05:54:30.852Z,95682.22
2023-01-27T05:56:57.288Z,95672.44
2023-01-27T05:59:24.867Z,95679.69
2023-01-27T06:01:51.520Z,95673.81
2023-01-27T06:04:18.057Z,95666.00
2023-01-27T06:06:44.541Z,95662.41
2023-01-27T06:09:11.386Z,95668.06
2023-01-27T06:11:37.853Z,95672.44
2023-01-27T06:14:04.309Z,95660.72
2023-01-27T06:16:30.934Z,95665.91
2023-01-27T06:18:58.694Z,95669.19
2023-01-27T06:21:25.252Z,95682.84
2023-01-27T06:23:53.562Z,95673.56
2023-01-27T06:26:20.251Z,95672.66
2023-01-27T06:28:47.274Z,95673.78
2023-01-27T06:31:18.727Z,95676.81
2023-01-27T06:33:45.390Z,95682.47
2023-01-27T06:36:13.544Z,95682.63
2023-01-27T06:38:40.232Z,95683.94
2023-01-27T06:41:06.834Z,95681.31
2023-01-27T06:43:33.399Z,95689.91
2023-01-27T06:46:00.222Z,95681.41
2023-01-27T06:48:27.046Z,95691.25
2023-01-27T06:50:54.525Z,95691.63
2023-01-27T06:53:21.202Z,95689.34
2023-01-27T06:55:47.875Z,95692.31
2023-01-27T06:58:15.215Z,95676.94
2023-01-27T07:00:42.455Z,95680.56
2023-01-27T07:03:10.812Z,95687.25
2023-01-27T07:05:38.279Z,95682.84
2023-01-27T07:08:04.801Z,95683.16
2023-01-27T07:10:31.307Z,95693.41
2023-01-27T07:13:05.017Z,95692.47
2023-01-27T07:15:32.240Z,95695.28
2023-01-27T07:17:59.379Z,95690.09
2023-01-27T07:20:28.776Z,95694.53
2023-01-27T07:23:01.387Z,95694.91
2023-01-27T07:25:28.576Z,95691.75
2023-01-27T07:27:57.708Z,95695.41
2023-01-27T07:30:24.433Z,95692.41
2023-01-27T07:32:50.975Z,95701.31
2023-01-27T07:35:17.916Z,95693.53
2023-01-27T07:37:44.372Z,95702.19
2023-01-27T07:40:11.148Z,95707.63
2023-01-27T07:42:37.623Z,95704.94
2023-01-27T07:45:04.226Z,95707.59
2023-01-27T07:47:30.659Z,95710.19
2023-01-27T07:49:57.186Z,95701.13
2023-01-27T07:52:23.681Z,95707.81
2023-01-27T07:54:50.280Z,95711.78
2023-01-27T07:57:16.738Z,95699.44
2023-01-27T07:59:43.156Z,95700.41
2023-01-27T08:02:10.411Z,95708.22
2023-01-27T08:04:50.895Z,95706.41
2023-01-27T08:07:18.829Z,95712.84
2023-01-27T08:09:45.361Z,95712.22
2023-01-27T08:12:13.810Z,95708.75
2023-01-27T08:14:40.235Z,95705.28
2023-01-27T08:17:06.660Z,95709.88
2023-01-27T08:19:33.176Z,95705.72
2023-01-27T08:21:59.620Z,95707.06
2023-01-27T08:24:26.111Z,95701.56
2023-01-27T08:26:52.659Z,95704.84
2023-01-27T08:29:19.120Z,95717.72
2023-01-27T08:31:45.741Z,95713.91
2023-01-27T08:34:12.314Z,95713.91
2023-01-27T08:36:40.446Z,95727.59
2023-01-27T08:39:06.918Z,95733.63
2023-01-27T08:41:33.486Z,95726.78
2023-01-27T08:43:59.965Z,95734.28
2023-01-27T08:46:26.982Z,95736.31
2023-01-27T08:48:53.575Z,95738.25
2023-01-27T08:51:20.059Z,95735.19
2023-01-27T08:53:46.548Z,95728.78
2023-01-27T08:56:14.100Z,95730.84
2023-01-27T08:58:41.084Z,95727.97
2023-01-27T09:01:08.048Z,95720.59
2023-01-27T09:03:35.244Z,95711.38
2023-01-27T09:06:01.722Z,95704.91
2023-01-27T09:08:28.576Z,95705.28
2023-01-27T09:10:55.287Z,95700.31
2023-01-27T09:13:24.816Z,95695.25
2023-01-27T09:15:52.113Z,95689.81
2023-01-27T09:18:18.831Z,95688.75
2023-01-27T09:20:45.361Z,95691.06
2023-01-27T09:23:11.832Z,95685.72
2023-01-27T09:25:38.336Z,95693.00
2023-01-27T09:28:04.953Z,95697.66
2023-01-27T09:30:31.591Z,95701.19
2023-01-27T09:33:00.168Z,95703.63
2023-01-27T09:35:30.262Z,95713.59
2023-01-27T09:37:57.921Z,95714.44
2023-01-27T09:40:41.951Z,95712.84
2023-01-27T09:43:23.700Z,95711.22
2023-01-27T09:45:50.193Z,95706.28
2023-01-27T09:48:26.203Z,95707.41
2023-01-27T09:51:03.888Z,95704.34
2023-01-27T09:53:49.515Z,95703.09
2023-01-27T09:56:31.397Z,95695.06
2023-01-27T09:59:06.573Z,95695.59
2023-01-27T10:01:33.063Z,95698.84
2023-01-27T10:03:59.554Z,95698.84
2023-01-27T10:06:39.277Z,95704.88
2023-01-27T10:09:24.385Z,95709.63
2023-01-27T10:12:10.681Z,95705.41
2023-01-27T10:14:42.575Z,95708.97
2023-01-27T10:17:31.209Z,95718.25
2023-01-27T10:20:10.040Z,95707.63
2023-01-27T10:22:42.627Z,95711.84
2023-01-27T10:25:18.284Z,95712.84
2023-01-27T10:27:47.842Z,95719.97
2023-01-27T10:30:20.759Z,95719.44
2023-01-27T10:33:05.787Z,95720.63
2023-01-27T10:35:35.159Z,95725.59
2023-01-27T10:38:37.163Z,95721.50
2023-01-27T10:41:06.580Z,95715.88
2023-01-27T10:43:46.478Z,95712.31
2023-01-27T10:46:26.004Z,95716.91
2023-01-27T10:48:57.400Z,95723.47
2023-01-27T10:51:23.827Z,95711.97
2023-01-27T10:54:00.751Z,95713.88
2023-01-27T10:56:32.169Z,95701.63
2023-01-27T10:59:15.712Z,95709.13
2023-01-27T11:01:49.301Z,95697.09
2023-01-27T11:04:27.156Z,95690.53
2023-01-27T11:06:54.331Z,95685.72
2023-01-27T11:09:26.111Z,95683.47
2023-01-27T11:11:53.808Z,95681.94
2023-01-27T11:14:28.911Z,95677.75
2023-01-27T11:17:02.002Z,95683.72
2023-01-27T11:19:28.463Z,95680.13
2023-01-27T11:22:06.795Z,95680.72
2023-01-27T11:24:42.319Z,95677.75
2023-01-27T11:27:15.675Z,95677.59
2023-01-27T11:30:08.172Z,95674.72
2023-01-27T11:32:40.617Z,95673.97
2023-01-27T11:35:14.547Z,95672.41
2023-01-27T11:37:41.984Z,95670.78
2023-01-27T11:40:17.719Z,95674.56
2023-01-27T11:42:44.454Z,95670.97
2023-01-27T11:45:15.701Z,95670.47
2023-01-27T11:47:43.155Z,95682.22
2023-01-27T11:50:20.847Z,95680.19
2023-01-27T11:53:10.661Z,95672.53
2023-01-27T11:55:42.345Z,95673.69
2023-01-27T11:58:15.067Z,95673.31
2023-01-27T12:00:44.843Z,95671.94
2023-01-27T12:03:17.824Z,95666.28
2023-01-27T12:06:00.057Z,95662.38
2023-01-27T12:08:55.615Z,95654.41
2023-01-27T12:11:29.115Z,95665.19
2023-01-27T12:13:59.937Z,95667.78
2023-01-27T12:16:33.072Z,95652.47
2023-01-27T12:19:02.786Z,95654.78
2023-01-27T12:21:38.409Z,95666.59
2023-01-27T12:24:06.012Z,95674.78
2023-01-27T12:26:37.563Z,95682.66
2023-01-27T12:29:06.090Z,95682.34
2023-01-27T12:31:33.454Z,95675.72
2023-01-27T12:33:59.938Z,95683.53
2023-01-27T12:36:29.219Z,95683.13
2023-01-27T12:39:00.309Z,95677.75
2023-01-27T12:41:27.871Z,95663.75
2023-01-27T12:43:56.299Z,95667.34
2023-01-27T12:46:27.647Z,95670.63
2023-01-27T12:49:00.385Z,95666.16
2023-01-27T12:51:41.070Z,95669.84
2023-01-27T12:54:37.363Z,95666.09
2023-01-27T12:57:05.610Z,95667.03
2023-01-27T12:59:33.225Z,95672.41
2023-01-27T13:02:01.733Z,95682.00
2023-01-27T13:04:29.067Z,95675.00
2023-01-27T13:07:01.467Z,95672.47
2023-01-27T13:09:35.666Z,95674.63
2023-01-27T13:12:12.926Z,95675.22
2023-01-27T13:14:40.958Z,95678.72
2023-01-27T13:17:26.086Z,95672.25
2023-01-27T13:19:54.547Z,95678.84
2023-01-27T13:22:21.954Z,95682.59
2023-01-27T13:24:50.647Z,95675.72
2023-01-27T13:27:19.747Z,95672.84
2023-01-27T13:29:54.574Z,95683.50
2023-01-27T13:32:25.222Z,95681.16
2023-01-27T13:35:00.337Z,95682.03
2023-01-27T13:37:34.541Z,95681.31
2023-01-27T13:40:07.145Z,95685.91
2023-01-27T13:42:37.285Z,95680.88
2023-01-27T13:45:12.865Z,95688.63
2023-01-27T13:47:53.513Z,95690.41
2023-01-27T13:50:19.963Z,95698.69
2023-01-27T13:52:50.216Z,95701.22
2023-01-27T13:55:18.483Z,95699.28
2023-01-27T13:57:52.390Z,95715.94
2023-01-27T14:00:19.666Z,95712.59
2023-01-27T14:03:07.692Z,95714.53
2023-01-27T14:05:52.629Z,95712.16
2023-01-27T14:08:25.336Z,95710.91
2023-01-27T14:11:10.312Z,95700.78
2023-01-27T14:13:51.835Z,95710.16
2023-01-27T14:16:30.293Z,95712.41
2023-01-27T14:19:05.355Z,95714.81
2023-01-27T14:24:41.849Z,95704.28
2023-01-27T14:27:14.549Z,95700.38
2023-01-27T14:29:40.971Z,95703.28
2023-01-27T14:32:19.155Z,95706.00
2023-01-27T14:35:05.784Z,95709.44
2023-01-27T14:37:44.388Z,95710.13
2023-01-27T14:40:19.749Z,95706.69
2023-01-27T14:42:55.093Z,95706.25
2023-01-27T14:45:27.728Z,95716.38
2023-01-27T14:48:02.566Z,95706.84
2023-01-27T14:50:32.732Z,95707.81
2023-01-27T14:53:18.896Z,95704.22
2023-01-27T14:56:05.539Z,95701.25
2023-01-27T14:58:50.292Z,95696.06
2023-01-27T15:01:32.106Z,95698.06
2023-01-27T15:04:17.097Z,95695.09
2023-01-27T15:06:47.771Z,95697.09
2023-01-27T15:09:24.274Z,95700.69
2023-01-27T15:12:02.778Z,95694.44
2023-01-27T15:14:48.185Z,95693.97
2023-01-27T15:17:31.966Z,95707.88
2023-01-27T15:20:13.855Z,95712.13
2023-01-27T15:22:46.372Z,95725.50
2023-01-27T15:25:19.283Z,95722.84
2023-01-27T15:27:47.190Z,95729.22
2023-01-27T15:30:22.487Z,95731.09
2023-01-27T15:32:48.954Z,95734.88
2023-01-27T15:35:33.472Z,95745.97
2023-01-27T15:38:02.981Z,95747.59
2023-01-27T15:40:29.974Z,95749.84
2023-01-27T15:43:02.227Z,95745.44
2023-01-27T15:45:39.288Z,95748.25
2023-01-27T15:48:17.772Z,95751.59
2023-01-27T15:50:56.042Z,95737.19
2023-01-27T15:53:44.630Z,95740.25
2023-01-27T15:56:11.118Z,95737.94
2023-01-27T15:58:39.872Z,95744.41
2023-01-27T16:01:11.737Z,95757.28
2023-01-27T16:03:44.151Z,95769.84
2023-01-27T16:06:14.709Z,95764.06
2023-01-27T16:08:47.219Z,95762.50
2023-01-27T16:11:28.963Z,95753.41
2023-01-27T16:14:17.122Z,95765.03
2023-01-27T16:17:05.026Z,95764.97
2023-01-27T16:19:34.294Z,95772.53
2023-01-27T16:22:02.739Z,95766.72
2023-01-27T16:24:36.067Z,95767.03
2023-01-27T16:27:15.000Z,95768.50
2023-01-27T16:29:42.565Z,95767.84
2023-01-27T16:32:17.061Z,95772.16
2023-01-27T16:34:49.263Z,95772.53
2023-01-27T16:37:22.863Z,95782.13
2023-01-27T16:39:49.307Z,95774.09
2023-01-27T16:42:16.767Z,95769.56
2023-01-27T16:44:43.180Z,95781.59
2023-01-27T16:47:19.591Z,95787.66
2023-01-27T16:49:48.734Z,95789.28
2023-01-27T16:52:40.732Z,95785.47
2023-01-27T16:55:18.921Z,95791.50
2023-01-27T16:57:45.632Z,95790.66
2023-01-27T17:00:20.049Z,95790.41
2023-01-27T17:02:47.135Z,95792.88
2023-01-27T17:05:15.882Z,95792.88
2023-01-27T17:08:00.791Z,95793.41
2023-01-27T17:10:34.816Z,95791.50
2023-01-27T17:13:01.929Z,95792.88
2023-01-27T17:15:29.657Z,95790.97
2023-01-27T17:17:56.554Z,95785.19
2023-01-27T17:20:22.941Z,95783.00
2023-01-27T17:22:54.224Z,95788.38
2023-01-27T17:25:35.470Z,95786.88
2023-01-27T17:28:06.602Z,95784.28
2023-01-27T17:30:35.502Z,95783.53
2023-01-27T17:33:02.753Z,95793.41
2023-01-27T17:35:32.937Z,95794.53
2023-01-27T17:38:12.125Z,95797.72
2023-01-27T17:40:45.261Z,95800.53
2023-01-27T17:43:31.021Z,95815.00
2023-01-27T17:46:16.102Z,95810.34
2023-01-27T17:48:47.328Z,95812.38
2023-01-27T17:51:18.584Z,95820.28
2023-01-27T17:53:45.149Z,95822.03
2023-01-27T17:56:17.287Z,95819.84
2023-01-27T17:58:45.587Z,95830.03
2023-01-27T18:01:13.643Z,95831.13
2023-01-27T18:03:40.808Z,95825.84
2023-01-27T18:06:11.283Z,95841.38
2023-01-27T18:08:38.588Z,95840.78
2023-01-27T18:11:12.515Z,95836.72
2023-01-27T18:13:40.524Z,95838.44
2023-01-27T18:16:19.383Z,95835.19
2023-01-27T18:18:46.520Z,95845.19
2023-01-27T18:21:16.019Z,95844.53
2023-01-27T18:23:45.235Z,95833.88
2023-01-27T18:26:11.696Z,95835.25
2023-01-27T18:28:38.480Z,95832.09
2023-01-27T18:31:12.026Z,95837.59
2023-01-27T18:33:38.541Z,95846.31
2023-01-27T18:36:05.305Z,95839.22
2023-01-27T18:38:32.627Z,95842.25
2023-01-27T18:41:18.752Z,95842.53
2023-01-27T18:43:47.442Z,95844.84
2023-01-27T18:46:14.150Z,95839.09
2023-01-27T18:48:40.738Z,95848.69
2023-01-27T18:51:12.145Z,95846.41
2023-01-27T18:53:38.715Z,95853.19
2023-01-27T18:56:05.430Z,95852.13
2023-01-27T18:58:31.908Z,95848.84
2023-01-27T19:00:59.642Z,95848.56
2023-01-27T19:03:27.246Z,95848.88
2023-01-27T19:05:54.307Z,95850.66
2023-01-27T19:08:21.751Z,95849.78
2023-01-27T19:10:48.672Z,95859.91
2023-01-27T19:13:15.862Z,95849.00
2023-01-27T19:15:49.533Z,95852.94
2023-01-27T19:18:20.169Z,95849.09
2023-01-27T19:20:46.738Z,95845.41
2023-01-27T19:23:14.220Z,95852.34
2023-01-27T19:25:41.198Z,95853.19
2023-01-27T19:28:12.909Z,95848.00
2023-01-27T19:30:39.594Z,95850.34
2023-01-27T19:33:37.434Z,95855.78
2023-01-27T19:36:22.650Z,95849.41
2023-01-27T19:38:52.836Z,95849.25
2023-01-27T19:41:19.266Z,95843.75
2023-01-27T19:43:49.957Z,95854.41
2023-01-27T19:46:18.842Z,95854.81
2023-01-27T19:48:45.333Z,95860.28
2023-01-27T19:51:12.077Z,95856.72
2023-01-27T19:53:38.821Z,95857.28
2023-01-27T19:56:11.338Z,95855.06
2023-01-27T19:58:37.838Z,95863.31
2023-01-27T20:01:04.631Z,95860.31
2023-01-27T20:03:31.111Z,95865.78
2023-01-27T20:05:57.603Z,95870.41
2023-01-27T20:08:24.167Z,95854.28
2023-01-27T20:10:51.093Z,95864.41
2023-01-27T20:13:18.638Z,95861.25
2023-01-27T20:15:45.498Z,95871.09
2023-01-27T20:18:16.318Z,95862.50
2023-01-27T20:20:44.289Z,95868.69
2023-01-27T20:23:14.715Z,95863.09
2023-01-27T20:25:41.173Z,95860.34
2023-01-27T20:28:08.204Z,95863.09
2023-01-27T20:30:34.768Z,95864.16
2023-01-27T20:33:02.231Z,95869.09
2023-01-27T20:35:28.914Z,95858.31
2023-01-27T20:37:55.948Z,95858.03
2023-01-27T20:40:24.384Z,95851.59
2023-01-27T20:42:50.942Z,95855.69
2023-01-27T20:45:18.012Z,95860.06
2023-01-27T20:47:48.340Z,95863.50
2023-01-27T20:50:14.875Z,95851.88
2023-01-27T20:52:41.311Z,95854.34
2023-01-27T20:55:09.859Z,95850.22
2023-01-27T20:57:36.670Z,95852.41
2023-01-27T21:00:03.344Z,95861.16
2023-01-27T21:02:30.145Z,95852.97
2023-01-27T21:04:56.619Z,95850.75
2023-01-27T21:07:23.829Z,95855.84
2023-01-27T21:09:50.854Z,95869.66
2023-01-27T21:12:17.282Z,95859.25
2023-01-27T21:14:43.752Z,95851.72
2023-01-27T21:17:11.734Z,95862.69
2023-01-27T21:19:38.159Z,95864.69
2023-01-27T21:22:04.665Z,95867.19
2023-01-27T21:24:31.491Z,95866.34
2023-01-27T21:26:57.985Z,95858.16
2023-01-27T21:29:24.447Z,95863.91
2023-01-27T21:31:50.962Z,95870.72
2023-01-27T21:34:17.505Z,95866.22
2023-01-27T21:36:43.929Z,95871.81
2023-01-27T21:39:10.381Z,95872.78
2023-01-27T21:41:55.042Z,95875.41
2023-01-27T21:44:44.343Z,95873.88
2023-01-27T21:47:11.872Z,95872.38
2023-01-27T21:49:58.071Z,95875.78
2023-01-27T21:52:25.633Z,95864.41
2023-01-27T21:54:52.511Z,95871.81
2023-01-27T21:57:19.127Z,95861.56
2023-01-27T21:59:45.621Z,95865.50
2023-01-27T22:02:15.886Z,95874.28
2023-01-27T22:04:42.962Z,95863.75
2023-01-27T22:07:11.181Z,95868.13
2023-01-27T22:09:37.787Z,95864.59
2023-01-27T22:12:04.903Z,95863.50
2023-01-27T22:14:31.535Z,95861.03
2023-01-27T22:16:57.992Z,95869.38
2023-01-27T22:19:24.630Z,95861.84
2023-01-27T22:21:51.042Z,95862.41
2023-01-27T22:24:17.629Z,95862.25
2023-01-27T22:26:44.213Z,95855.41
2023-01-27T22:29:10.661Z,95863.66
2023-01-27T22:31:38.475Z,95861.44
2023-01-27T22:34:04.938Z,95862.50
2023-01-27T22:36:31.426Z,95863.75
2023-01-27T22:38:57.845Z,95864.44
2023-01-27T22:41:24.311Z,95859.78
2023-01-27T22:43:50.926Z,95865.41
2023-01-27T22:46:17.878Z,95868.66
2023-01-27T22:48:46.873Z,95862.66
2023-01-27T22:51:13.573Z,95867.41
2023-01-27T22:53:39.997Z,95867.16
2023-01-27T22:56:06.706Z,95866.22
2023-01-27T22:58:33.181Z,95862.00
2023-01-27T23:00:59.748Z,95865.81
2023-01-27T23:03:26.296Z,95850.22
2023-01-27T23:05:52.736Z,95853.50
2023-01-27T23:08:20.719Z,95858.72
2023-01-27T23:10:47.613Z,95857.34
2023-01-27T23:13:14.346Z,95851.84
2023-01-27T23:15:40.843Z,95851.84
2023-01-27T23:18:11.514Z,95850.06
2023-01-27T23:20:39.719Z,95844.47
2023-01-27T23:23:06.308Z,95848.03
2023-01-27T23:25:33.927Z,95846.41
2023-01-27T23:28:00.493Z,95848.31
2023-01-27T23:30:27.247Z,95857.91
2023-01-27T23:32:57.396Z,95848.84
2023-01-27T23:35:24.043Z,95849.00
2023-01-27T23:37:50.470Z,95848.03
2023-01-27T23:40:17.079Z,95850.22
2023-01-27T23:42:43.851Z,95855.41
2023-01-27T23:45:10.541Z,95845.31
2023-01-27T23:47:36.983Z,95849.94
2023-01-27T23:50:03.534Z,95855.25
2023-01-27T23:52:31.171Z,95847.19
2023-01-27T23:54:57.666Z,95846.91
2023-01-27T23:57:24.112Z,95848.81
2023-01-27T23:59:50.545Z,95842.09
